Time;durP1;ratioP1;P1;durP2;ratioP2;P2;SDS_P1;SDS_P2;PMS_P1;PMS_P2;Temp;Humidity;BMP_temperature;BMP_pressure;BME280_temperature;BME280_humidity;BME280_pressure;Samples;Min_cycle;Max_cycle;Signal;HPM_P1;HPM_P2
2023/09/24 00:01:16;;;;;;;0.60;0.60;;;11.70;99.90;;;;;;5094696;28;20485;-75
2023/09/24 00:03:43;;;;;;;0.50;0.50;;;11.70;99.90;;;;;;5094565;28;20507;-75
2023/09/24 00:06:09;;;;;;;;;;;11.70;99.90;;;;;;5095108;28;20375;-76
2023/09/24 00:08:36;;;;;;;0.57;0.57;;;11.70;99.90;;;;;;5094828;28;20247;-74
2023/09/24 00:11:02;;;;;;;0.40;0.40;;;11.80;99.90;;;;;;5094301;28;20044;-75
2023/09/24 00:13:28;;;;;;;0.50;0.50;;;11.80;99.90;;;;;;5094494;28;20036;-75
2023/09/24 00:15:54;;;;;;;0.50;0.50;;;11.80;99.90;;;;;;5094490;28;20035;-75
2023/09/24 00:18:20;;;;;;;0.50;0.50;;;11.80;99.90;;;;;;5094516;28;20032;-74
2023/09/24 00:20:46;;;;;;;0.40;0.40;;;11.80;99.90;;;;;;5094580;28;20040;-76
2023/09/24 00:23:14;;;;;;;0.43;0.43;;;11.80;99.90;;;;;;5093167;28;20431;-74
2023/09/24 00:25:40;;;;;;;4.88;0.70;;;11.80;99.90;;;;;;5094333;28;20043;-74
2023/09/24 00:28:07;;;;;;;0.70;0.70;;;11.80;99.90;;;;;;5094526;28;20130;-75
2023/09/24 00:30:34;;;;;;;0.40;0.40;;;11.80;99.90;;;;;;5094149;28;20050;-76
2023/09/24 00:33:00;;;;;;;0.50;0.50;;;11.80;99.90;;;;;;5093993;28;20123;-75
2023/09/24 00:35:26;;;;;;;0.45;0.45;;;11.80;99.90;;;;;;5094161;28;20044;-74
2023/09/24 00:37:52;;;;;;;0.40;0.40;;;11.70;99.90;;;;;;5094049;28;20044;-75
2023/09/24 00:40:18;;;;;;;0.40;0.40;;;11.70;99.90;;;;;;5093836;28;20299;-74
2023/09/24 00:42:44;;;;;;;0.40;0.40;;;11.70;99.90;;;;;;5094062;28;20467;-74
2023/09/24 00:45:11;;;;;;;0.40;0.40;;;11.70;99.90;;;;;;5093698;28;20519;-76
2023/09/24 00:47:38;;;;;;;;;;;11.70;99.90;;;;;;5094714;28;20032;-76
2023/09/24 00:50:08;;;;;;;0.40;0.40;;;11.70;99.90;;;;;;5094081;28;20349;-75
2023/09/24 00:52:35;;;;;;;0.50;0.50;;;11.70;99.90;;;;;;5093829;28;20048;-74
2023/09/24 00:55:04;;;;;;;0.60;0.60;;;11.70;99.90;;;;;;5093906;28;20040;-75
2023/09/24 00:57:31;;;;;;;0.95;0.60;;;11.70;99.90;;;;;;5093483;28;20479;-75
2023/09/24 00:59:58;;;;;;;0.43;0.43;;;11.70;99.90;;;;;;5093782;28;20036;-76
2023/09/24 01:02:24;;;;;;;0.60;0.60;;;12.10;99.90;;;;;;5093798;28;20039;-75
2023/09/24 01:04:53;;;;;;;0.47;0.47;;;11.80;99.90;;;;;;5093704;28;20039;-75
2023/09/24 01:07:21;;;;;;;0.40;0.40;;;11.80;99.90;;;;;;5093441;28;20048;-75
2023/09/24 01:09:48;;;;;;;0.90;0.90;;;11.80;99.90;;;;;;5093794;28;20078;-75
2023/09/24 01:12:20;;;;;;;;;;;11.80;99.90;;;;;;5094035;28;20062;-75
2023/09/24 01:14:46;;;;;;;0.50;0.50;;;11.80;99.90;;;;;;5093911;28;19923;-75
2023/09/24 01:17:11;;;;;;;0.90;0.70;;;11.90;99.90;;;;;;5093262;28;20035;-74
2023/09/24 01:19:37;;;;;;;0.50;0.50;;;11.90;99.90;;;;;;5093695;28;20040;-74
2023/09/24 01:22:03;;;;;;;0.50;0.50;;;11.90;99.90;;;;;;5093533;28;20032;-74
2023/09/24 01:24:30;;;;;;;0.40;0.40;;;11.90;99.90;;;;;;5093664;28;20533;-74
2023/09/24 01:26:57;;;;;;;0.50;0.50;;;11.90;99.90;;;;;;5093625;28;20094;-75
2023/09/24 01:29:23;;;;;;;0.60;0.60;;;12.00;99.90;;;;;;5093430;28;20051;-74
2023/09/24 01:31:50;;;;;;;0.47;0.47;;;12.00;99.90;;;;;;5093505;28;20066;-75
2023/09/24 01:34:16;;;;;;;0.43;0.43;;;12.00;99.90;;;;;;5093549;28;20047;-74
2023/09/24 01:36:41;;;;;;;0.40;0.40;;;12.10;99.90;;;;;;5093414;28;20032;-74
2023/09/24 01:39:07;;;;;;;0.60;0.60;;;12.00;99.90;;;;;;5093467;28;20490;-75
2023/09/24 01:41:33;;;;;;;0.45;0.45;;;12.10;99.90;;;;;;5093376;28;20122;-74
2023/09/24 01:44:02;;;;;;;0.60;0.60;;;12.00;99.90;;;;;;5093425;28;20044;-75
2023/09/24 01:46:27;;;;;;;0.70;0.70;;;12.00;99.90;;;;;;5093356;28;20119;-74
2023/09/24 01:48:54;;;;;;;0.40;0.40;;;12.00;99.90;;;;;;5093285;28;20181;-74
2023/09/24 01:51:20;;;;;;;0.35;0.35;;;12.00;99.90;;;;;;5095228;28;20093;-74
2023/09/24 01:53:47;;;;;;;0.67;0.67;;;12.00;99.90;;;;;;5097223;28;20067;-74
2023/09/24 01:56:13;;;;;;;;;;;12.10;99.90;;;;;;5097328;28;20821;-75
2023/09/24 01:58:39;;;;;;;0.50;0.50;;;12.00;99.90;;;;;;5097083;28;20015;-75
2023/09/24 02:01:07;;;;;;;0.47;0.47;;;12.00;99.90;;;;;;5097260;28;20051;-75
2023/09/24 02:03:33;;;;;;;0.52;0.52;;;12.20;99.90;;;;;;5096973;28;20127;-75
2023/09/24 02:05:58;;;;;;;0.60;0.60;;;12.00;99.90;;;;;;5096906;28;20123;-74
2023/09/24 02:08:24;;;;;;;0.47;0.47;;;12.00;99.90;;;;;;5096674;28;20044;-74
2023/09/24 02:10:50;;;;;;;0.50;0.50;;;11.90;99.90;;;;;;5097230;28;20044;-74
2023/09/24 02:13:15;;;;;;;0.40;0.40;;;12.00;99.90;;;;;;5095730;28;20047;-75
2023/09/24 02:15:46;;;;;;;0.50;0.50;;;11.90;99.90;;;;;;5096964;28;20046;-75
2023/09/24 02:18:11;;;;;;;0.50;0.50;;;11.90;99.90;;;;;;5096921;28;20040;-74
2023/09/24 02:20:41;;;;;;;0.43;0.43;;;11.90;99.90;;;;;;5096626;28;20502;-74
2023/09/24 02:23:07;;;;;;;0.40;0.40;;;11.90;99.90;;;;;;5096744;28;20471;-76
2023/09/24 02:25:37;;;;;;;0.50;0.50;;;11.90;99.90;;;;;;5095845;28;20426;-75
2023/09/24 02:28:06;;;;;;;0.40;0.40;;;11.90;99.90;;;;;;5096606;28;20044;-75
2023/09/24 02:30:34;;;;;;;0.50;0.50;;;11.90;99.90;;;;;;5096578;28;20040;-73
2023/09/24 02:33:02;;;;;;;0.45;0.45;;;11.90;99.90;;;;;;5096427;28;20028;-76
2023/09/24 02:35:28;;;;;;;0.50;0.50;;;11.90;99.90;;;;;;5097088;28;20082;-75
2023/09/24 02:37:54;;;;;;;0.40;0.40;;;11.80;99.90;;;;;;5096537;28;20040;-76
2023/09/24 02:40:23;;;;;;;0.50;0.50;;;11.80;99.90;;;;;;5096333;28;20044;-75
2023/09/24 02:42:51;;;;;;;0.50;0.50;;;11.80;99.90;;;;;;5096330;28;20101;-74
2023/09/24 02:45:17;;;;;;;0.60;0.60;;;11.80;99.90;;;;;;5096231;28;20043;-76
2023/09/24 02:47:50;;;;;;;0.40;0.40;;;11.80;99.90;;;;;;5096064;28;20044;-74
2023/09/24 02:50:16;;;;;;;0.80;0.60;;;11.70;99.90;;;;;;5096148;28;20078;-75
2023/09/24 02:52:44;;;;;;;0.57;0.57;;;11.70;99.90;;;;;;5096058;28;20088;-76
2023/09/24 02:55:13;;;;;;;0.50;0.50;;;11.70;99.90;;;;;;5096086;28;20127;-74
2023/09/24 02:57:40;;;;;;;0.40;0.40;;;11.70;99.90;;;;;;5096015;28;20516;-74
2023/09/24 03:00:12;;;;;;;0.40;0.40;;;11.70;99.90;;;;;;5095908;28;20040;-76
2023/09/24 03:02:38;;;;;;;0.40;0.40;;;11.60;99.90;;;;;;5096090;28;20042;-74
2023/09/24 03:05:15;;;;;;;0.43;0.43;;;11.60;99.90;;;;;;5096186;28;20062;-74
2023/09/24 03:07:44;;;;;;;2.20;0.60;;;11.60;99.90;;;;;;5095953;28;20044;-76
2023/09/24 03:10:10;;;;;;;0.43;0.43;;;11.50;99.90;;;;;;5095808;28;20086;-76
2023/09/24 03:12:36;;;;;;;0.40;0.40;;;11.60;99.90;;;;;;5095677;28;20149;-75
2023/09/24 03:15:03;;;;;;;0.50;0.50;;;11.50;99.90;;;;;;5095678;28;20395;-74
2023/09/24 03:17:28;;;;;;;0.43;0.43;;;11.50;99.90;;;;;;5095531;28;20468;-76
2023/09/24 03:19:54;;;;;;;0.50;0.50;;;11.70;99.90;;;;;;5095609;28;20040;-75
2023/09/24 03:22:21;;;;;;;0.60;0.60;;;11.40;99.90;;;;;;5095571;28;20040;-75
2023/09/24 03:24:47;;;;;;;0.50;0.50;;;11.30;99.90;;;;;;5095483;28;20076;-76
2023/09/24 03:27:14;;;;;;;0.43;0.43;;;11.30;99.90;;;;;;5095439;28;20118;-74
2023/09/24 03:29:40;;;;;;;0.43;0.43;;;11.30;99.90;;;;;;5094075;28;20418;-74
2023/09/24 03:32:06;;;;;;;0.47;0.47;;;11.20;99.90;;;;;;5094470;28;20043;-74
2023/09/24 03:34:32;;;;;;;0.47;0.47;;;11.20;99.90;;;;;;5095238;28;20044;-76
2023/09/24 03:36:57;;;;;;;0.50;0.50;;;11.10;99.90;;;;;;5093854;28;20097;-75
2023/09/24 03:39:24;;;;;;;0.43;0.43;;;11.10;99.90;;;;;;5094901;28;20036;-76
2023/09/24 03:41:50;;;;;;;;;;;11.10;99.90;;;;;;5094511;28;20392;-75
2023/09/24 03:44:15;;;;;;;0.60;0.60;;;11.00;99.90;;;;;;5095010;28;19959;-76
2023/09/24 03:46:41;;;;;;;0.60;0.60;;;11.20;99.90;;;;;;5095060;28;20054;-75
2023/09/24 03:49:07;;;;;;;0.50;0.50;;;11.00;99.90;;;;;;5095382;28;20028;-75
2023/09/24 03:51:32;;;;;;;0.60;0.60;;;11.00;99.90;;;;;;5094957;28;20043;-75
2023/09/24 03:53:58;;;;;;;0.70;0.70;;;10.90;99.90;;;;;;5095171;28;20039;-75
2023/09/24 03:56:24;;;;;;;0.40;0.40;;;10.90;99.90;;;;;;5094611;28;20046;-76
2023/09/24 03:58:50;;;;;;;0.50;0.50;;;10.80;99.90;;;;;;5094733;28;20477;-75
2023/09/24 04:01:17;;;;;;;0.70;0.70;;;10.80;99.90;;;;;;5094518;28;20122;-76
2023/09/24 04:03:43;;;;;;;0.80;0.60;;;10.80;99.90;;;;;;5094742;28;20044;-75
2023/09/24 04:06:10;;;;;;;0.57;0.57;;;10.70;99.90;;;;;;5094713;28;20040;-75
2023/09/24 04:08:36;;;;;;;0.55;0.55;;;10.70;99.90;;;;;;5094184;28;20076;-75
2023/09/24 04:11:06;;;;;;;0.50;0.50;;;10.70;99.90;;;;;;5094440;28;20223;-75
2023/09/24 04:13:32;;;;;;;0.50;0.50;;;10.60;99.90;;;;;;5093805;28;20044;-74
2023/09/24 04:16:06;;;;;;;0.60;0.60;;;10.60;99.90;;;;;;5094551;28;20372;-75
2023/09/24 04:18:34;;;;;;;0.40;0.40;;;10.60;99.90;;;;;;5094519;28;20380;-75
2023/09/24 04:21:01;;;;;;;0.60;0.60;;;10.60;99.90;;;;;;5094429;28;20119;-75
2023/09/24 04:23:28;;;;;;;0.60;0.60;;;10.60;99.90;;;;;;5094407;28;20170;-75
2023/09/24 04:25:54;;;;;;;0.60;0.60;;;10.50;99.90;;;;;;5094380;28;20046;-74
2023/09/24 04:28:20;;;;;;;0.87;0.80;;;10.50;99.90;;;;;;5094261;28;20040;-74
2023/09/24 04:30:46;;;;;;;0.88;0.70;;;10.50;99.90;;;;;;5094274;28;20284;-75
2023/09/24 04:33:12;;;;;;;0.50;0.50;;;10.60;99.90;;;;;;5094616;28;20047;-74
2023/09/24 04:35:38;;;;;;;0.60;0.60;;;10.50;99.90;;;;;;5094151;28;20472;-75
2023/09/24 04:38:07;;;;;;;0.60;0.60;;;10.40;99.90;;;;;;5094458;28;20375;-75
2023/09/24 04:40:34;;;;;;;0.68;0.68;;;10.40;99.90;;;;;;5094001;28;20093;-75
2023/09/24 04:42:59;;;;;;;0.60;0.60;;;10.50;99.90;;;;;;5092912;28;20040;-75
2023/09/24 04:45:25;;;;;;;0.60;0.60;;;10.30;99.90;;;;;;5092758;28;20113;-74
2023/09/24 04:47:51;;;;;;;0.60;0.60;;;10.30;99.90;;;;;;5094003;28;20047;-75
2023/09/24 04:50:17;;;;;;;0.60;0.60;;;10.30;99.90;;;;;;5093905;28;20044;-75
2023/09/24 04:52:47;;;;;;;0.70;0.70;;;10.30;99.90;;;;;;5093962;28;20050;-76
2023/09/24 04:55:13;;;;;;;0.50;0.50;;;10.40;99.90;;;;;;5093756;28;20511;-76
2023/09/24 04:57:38;;;;;;;0.57;0.57;;;10.20;99.90;;;;;;5093899;28;20032;-75
2023/09/24 05:00:04;;;;;;;0.50;0.50;;;10.20;99.90;;;;;;5093822;28;20040;-75
2023/09/24 05:02:30;;;;;;;0.60;0.60;;;10.20;99.90;;;;;;5093801;28;20131;-74
2023/09/24 05:04:56;;;;;;;0.60;0.60;;;10.20;99.90;;;;;;5093565;28;20081;-75
2023/09/24 05:07:22;;;;;;;0.60;0.60;;;10.20;99.90;;;;;;5093514;28;20122;-76
2023/09/24 05:09:47;;;;;;;0.50;0.50;;;10.10;99.90;;;;;;5093713;28;20056;-74
2023/09/24 05:12:13;;;;;;;0.60;0.60;;;10.10;99.90;;;;;;5093734;28;20372;-74
2023/09/24 05:14:39;;;;;;;0.82;0.82;;;10.20;99.90;;;;;;5093985;28;20036;-73
2023/09/24 05:17:05;;;;;;;0.60;0.60;;;10.10;99.90;;;;;;5093656;28;20196;-75
2023/09/24 05:19:31;;;;;;;0.70;0.70;;;10.10;99.90;;;;;;5093605;28;20124;-77
2023/09/24 05:21:57;;;;;;;0.60;0.60;;;10.10;99.90;;;;;;5093530;28;20056;-72
2023/09/24 05:24:22;;;;;;;0.50;0.50;;;10.10;99.90;;;;;;5093934;28;20129;-74
2023/09/24 05:26:48;;;;;;;0.60;0.60;;;10.00;99.90;;;;;;5097754;28;20051;-75
2023/09/24 05:29:13;;;;;;;0.60;0.60;;;10.00;99.90;;;;;;5096595;28;20044;-73
2023/09/24 05:31:39;;;;;;;0.60;0.60;;;10.00;99.90;;;;;;5097661;28;20039;-73
2023/09/24 05:34:06;;;;;;;0.50;0.50;;;10.00;99.90;;;;;;5097648;28;20131;-74
2023/09/24 05:36:31;;;;;;;0.50;0.50;;;10.60;99.90;;;;;;5097591;28;20105;-74
2023/09/24 05:38:58;;;;;;;0.60;0.60;;;10.30;99.90;;;;;;5097437;28;20032;-74
2023/09/24 05:41:24;;;;;;;0.50;0.50;;;10.00;99.90;;;;;;5097479;28;20063;-72
2023/09/24 05:43:50;;;;;;;0.60;0.60;;;9.90;99.90;;;;;;5097400;28;20040;-73
2023/09/24 05:46:15;;;;;;;0.60;0.60;;;9.90;99.90;;;;;;5097429;28;20032;-72
2023/09/24 05:48:41;;;;;;;0.60;0.60;;;9.90;99.90;;;;;;5096090;28;20032;-73
2023/09/24 05:51:07;;;;;;;0.50;0.50;;;10.00;99.90;;;;;;5097272;28;20175;-73
2023/09/24 05:53:33;;;;;;;0.80;0.80;;;10.10;99.90;;;;;;5097332;28;20056;-73
2023/09/24 05:56:02;;;;;;;0.55;0.55;;;10.10;99.90;;;;;;5097188;28;20093;-74
2023/09/24 05:58:28;;;;;;;0.60;0.60;;;10.10;99.90;;;;;;5097088;28;20044;-74
2023/09/24 06:00:55;;;;;;;0.60;0.60;;;10.10;99.90;;;;;;5097130;28;20036;-74
2023/09/24 06:03:21;;;;;;;0.60;0.60;;;10.10;99.90;;;;;;5097263;28;20036;-73
2023/09/24 06:05:47;;;;;;;0.50;0.50;;;10.10;99.90;;;;;;5097075;28;20372;-74
2023/09/24 06:08:13;;;;;;;0.60;0.60;;;10.10;99.90;;;;;;5096895;28;20048;-74
2023/09/24 06:10:46;;;;;;;1.37;0.90;;;10.10;99.90;;;;;;5097481;28;20089;-74
2023/09/24 06:13:13;;;;;;;0.50;0.50;;;10.10;99.90;;;;;;5096899;28;20055;-75
2023/09/24 06:15:40;;;;;;;1.20;0.73;;;10.10;99.90;;;;;;5096596;28;20044;-74
2023/09/24 06:18:06;;;;;;;0.80;0.80;;;10.10;99.90;;;;;;5096842;28;20040;-74
2023/09/24 06:20:31;;;;;;;1.25;0.70;;;10.20;99.90;;;;;;5096998;28;20513;-75
2023/09/24 06:22:57;;;;;;;0.68;0.68;;;10.20;99.90;;;;;;5096607;28;20047;-73
2023/09/24 06:25:24;;;;;;;0.60;0.60;;;10.20;99.90;;;;;;5096696;28;20051;-74
2023/09/24 06:27:49;;;;;;;0.68;0.60;;;10.20;99.90;;;;;;5097056;28;20036;-75
2023/09/24 06:30:15;;;;;;;0.50;0.50;;;10.20;99.90;;;;;;5096498;28;20036;-74
2023/09/24 06:32:41;;;;;;;0.73;0.70;;;10.20;99.90;;;;;;5096381;28;20083;-73
2023/09/24 06:35:07;;;;;;;0.52;0.52;;;10.20;99.90;;;;;;5096494;28;20043;-77
2023/09/24 06:37:33;;;;;;;0.70;0.70;;;10.30;99.90;;;;;;5095591;28;20055;-76
2023/09/24 06:39:59;;;;;;;0.60;0.60;;;10.30;99.90;;;;;;5096145;28;20460;-76
2023/09/24 06:42:24;;;;;;;0.70;0.70;;;10.40;99.90;;;;;;5096736;28;20040;-74
2023/09/24 06:44:50;;;;;;;0.70;0.70;;;10.40;99.90;;;;;;5096634;28;20085;-73
2023/09/24 06:47:16;;;;;;;0.70;0.70;;;10.50;99.90;;;;;;5096767;28;20040;-74
2023/09/24 06:49:42;;;;;;;0.70;0.70;;;10.50;99.90;;;;;;5095813;28;20502;-77
2023/09/24 06:52:08;;;;;;;0.60;0.60;;;10.60;99.90;;;;;;5096244;28;20040;-72
2023/09/24 06:54:34;;;;;;;0.70;0.70;;;10.60;99.90;;;;;;5095855;28;20040;-74
2023/09/24 06:56:59;;;;;;;0.60;0.60;;;10.70;99.90;;;;;;5096081;28;20032;-75
2023/09/24 06:59:25;;;;;;;1.02;0.93;;;10.80;99.90;;;;;;5096339;28;20464;-74
2023/09/24 07:01:53;;;;;;;0.63;0.63;;;10.90;99.90;;;;;;5096007;28;20040;-73
2023/09/24 07:04:19;;;;;;;0.57;0.57;;;11.00;99.90;;;;;;5096064;28;20376;-72
2023/09/24 07:06:44;;;;;;;0.60;0.60;;;11.10;99.90;;;;;;5096072;28;20042;-71
2023/09/24 07:09:10;;;;;;;1.55;0.80;;;11.30;99.90;;;;;;5096096;28;20082;-70
2023/09/24 07:11:38;;;;;;;0.60;0.60;;;11.30;99.90;;;;;;5095791;28;20042;-70
2023/09/24 07:14:05;;;;;;;0.60;0.60;;;11.40;99.90;;;;;;5095711;28;20097;-76
2023/09/24 07:16:32;;;;;;;1.15;1.00;;;11.40;99.90;;;;;;5095534;28;20526;-75
2023/09/24 07:18:58;;;;;;;0.50;0.50;;;11.60;99.90;;;;;;5095678;28;20032;-73
2023/09/24 07:21:28;;;;;;;0.60;0.60;;;11.60;99.90;;;;;;5095561;28;20124;-72
2023/09/24 07:23:55;;;;;;;0.63;0.63;;;11.70;99.90;;;;;;5095576;28;20071;-73
2023/09/24 07:26:22;;;;;;;0.60;0.60;;;11.80;99.90;;;;;;5095502;28;20083;-73
2023/09/24 07:28:49;;;;;;;0.50;0.50;;;12.00;99.90;;;;;;5095444;28;20094;-73
2023/09/24 07:31:19;;;;;;;0.70;0.70;;;11.90;99.90;;;;;;5095480;28;20039;-74
2023/09/24 07:33:45;;;;;;;0.80;0.80;;;12.00;99.90;;;;;;5095192;28;20070;-75
2023/09/24 07:36:12;;;;;;;0.50;0.50;;;12.00;99.90;;;;;;5094810;28;20047;-74
2023/09/24 07:38:39;;;;;;;0.50;0.50;;;12.10;99.90;;;;;;5095193;28;20092;-73
2023/09/24 07:41:04;;;;;;;0.82;0.82;;;12.20;99.90;;;;;;5095190;28;20540;-73
2023/09/24 07:43:30;;;;;;;0.87;0.60;;;12.20;99.90;;;;;;5095121;28;20115;-75
2023/09/24 07:45:56;;;;;;;0.60;0.60;;;12.30;99.90;;;;;;5094173;28;20028;-75
2023/09/24 07:48:21;;;;;;;0.80;0.80;;;12.30;99.90;;;;;;5093952;28;20048;-74
2023/09/24 07:50:54;;;;;;;0.40;0.40;;;12.40;99.90;;;;;;5095043;28;20045;-75
2023/09/24 07:53:22;;;;;;;0.50;0.50;;;12.50;99.90;;;;;;5094960;28;20093;-73
2023/09/24 07:56:02;;;;;;;0.60;0.60;;;12.50;99.90;;;;;;5094831;28;20040;-75
2023/09/24 07:58:30;;;;;;;0.68;0.68;;;12.60;99.90;;;;;;5095250;28;20040;-74
2023/09/24 08:01:05;;;;;;;0.52;0.52;;;12.70;99.90;;;;;;5093461;28;20040;-74
2023/09/24 08:03:31;;;;;;;0.50;0.50;;;12.80;99.90;;;;;;5093847;28;20036;-75
2023/09/24 08:05:58;;;;;;;1.58;0.77;;;12.90;99.90;;;;;;5094828;28;20471;-75
2023/09/24 08:08:25;;;;;;;1.27;0.95;;;12.90;99.90;;;;;;5094494;28;20052;-74
2023/09/24 08:10:51;;;;;;;1.13;1.02;;;13.00;99.90;;;;;;5094620;28;20058;-73
2023/09/24 08:13:19;;;;;;;0.50;0.50;;;13.00;99.90;;;;;;5094535;28;20127;-73
2023/09/24 08:15:45;;;;;;;0.93;0.80;;;13.20;99.90;;;;;;5094426;28;20066;-74
2023/09/24 08:18:12;;;;;;;0.70;0.70;;;13.10;99.90;;;;;;5093408;28;20352;-73
2023/09/24 08:20:38;;;;;;;0.82;0.80;;;13.30;99.90;;;;;;5094467;28;20467;-73
2023/09/24 08:23:04;;;;;;;0.40;0.40;;;13.30;99.90;;;;;;5094508;28;20042;-74
2023/09/24 08:25:31;;;;;;;0.70;0.70;;;13.40;99.90;;;;;;5094588;28;20044;-75
2023/09/24 08:27:57;;;;;;;0.60;0.60;;;13.50;99.90;;;;;;5094197;28;20120;-75
2023/09/24 08:30:24;;;;;;;0.60;0.60;;;13.50;99.90;;;;;;5094298;28;20059;-75
2023/09/24 08:32:49;;;;;;;0.70;0.70;;;13.60;99.90;;;;;;5093989;28;20040;-75
2023/09/24 08:35:15;;;;;;;0.75;0.60;;;13.70;99.90;;;;;;5094218;28;20046;-74
2023/09/24 08:37:41;;;;;;;0.55;0.50;;;13.70;99.90;;;;;;5094220;28;20032;-73
2023/09/24 08:40:09;;;;;;;1.15;1.05;;;13.80;99.90;;;;;;5093985;28;20042;-73
2023/09/24 08:42:36;;;;;;;3.72;1.02;;;13.90;99.90;;;;;;5094240;28;20036;-75
2023/09/24 08:45:12;;;;;;;0.55;0.55;;;14.00;99.90;;;;;;5093986;28;20207;-75
2023/09/24 08:47:39;;;;;;;0.50;0.50;;;14.10;99.90;;;;;;5094033;28;20040;-73
2023/09/24 08:50:06;;;;;;;0.75;0.75;;;14.10;99.90;;;;;;5093955;28;20086;-74
2023/09/24 08:52:35;;;;;;;;;;;14.20;99.90;;;;;;5094654;28;20042;-74
2023/09/24 08:55:06;;;;;;;0.55;0.55;;;14.30;99.90;;;;;;5093978;28;19923;-74
2023/09/24 08:57:34;;;;;;;1.10;0.85;;;14.40;99.90;;;;;;5094015;28;20079;-74
2023/09/24 09:00:00;;;;;;;1.20;0.73;;;14.50;99.90;;;;;;5093234;28;20044;-73
2023/09/24 09:02:25;;;;;;;0.60;0.60;;;14.60;99.90;;;;;;5094248;28;20050;-75
2023/09/24 09:04:51;;;;;;;0.50;0.50;;;14.70;99.90;;;;;;5094141;28;20075;-75
2023/09/24 09:07:17;;;;;;;0.87;0.60;;;14.80;99.90;;;;;;5093846;28;20032;-75
2023/09/24 09:09:55;;;;;;;0.47;0.47;;;14.90;99.90;;;;;;5093928;28;20064;-74
2023/09/24 09:12:23;;;;;;;0.50;0.50;;;15.00;99.90;;;;;;5093713;28;20044;-73
2023/09/24 09:14:50;;;;;;;0.50;0.50;;;15.10;99.90;;;;;;5093692;28;20036;-74
2023/09/24 09:17:16;;;;;;;0.50;0.50;;;15.20;99.90;;;;;;5093622;28;20044;-74
2023/09/24 09:19:48;;;;;;;0.85;0.60;;;15.30;99.90;;;;;;5093978;28;20043;-73
2023/09/24 09:22:19;;;;;;;0.73;0.73;;;15.50;99.90;;;;;;5093641;28;20066;-74
2023/09/24 09:24:47;;;;;;;0.50;0.50;;;15.50;99.90;;;;;;5093612;28;20438;-75
2023/09/24 09:27:12;;;;;;;0.38;0.38;;;15.50;99.90;;;;;;5093617;28;20040;-74
2023/09/24 09:29:38;;;;;;;0.40;0.40;;;15.60;99.90;;;;;;5093657;28;20036;-73
2023/09/24 09:32:03;;;;;;;0.40;0.40;;;15.60;99.90;;;;;;5093550;28;20460;-73
2023/09/24 09:34:29;;;;;;;0.40;0.40;;;15.60;99.90;;;;;;5093516;28;20123;-73
2023/09/24 09:37:14;;;;;;;0.40;0.40;;;15.70;99.90;;;;;;5093635;28;20039;-75
2023/09/24 09:39:39;;;;;;;0.50;0.50;;;15.80;99.90;;;;;;5093101;28;20107;-75
2023/09/24 09:42:06;;;;;;;0.53;0.53;;;15.80;99.90;;;;;;5093830;28;20083;-75
2023/09/24 09:44:33;;;;;;;1.08;0.98;;;15.90;99.90;;;;;;5093481;28;20055;-76
2023/09/24 09:47:00;;;;;;;;;;;16.00;99.90;;;;;;5094075;28;20040;-76
2023/09/24 09:49:26;;;;;;;0.77;0.77;;;16.00;99.90;;;;;;5093280;28;20309;-72
2023/09/24 09:51:54;;;;;;;1.83;0.50;;;16.10;99.90;;;;;;5093318;28;20115;-73
2023/09/24 09:54:22;;;;;;;0.60;0.60;;;16.20;99.90;;;;;;5093266;28;20051;-74
2023/09/24 09:56:50;;;;;;;0.68;0.68;;;16.30;99.90;;;;;;5093377;28;20051;-73
2023/09/24 09:59:19;;;;;;;0.40;0.40;;;16.30;99.90;;;;;;5093324;28;20093;-74
2023/09/24 10:01:44;;;;;;;0.75;0.75;;;16.40;99.90;;;;;;5093523;28;20138;-74
2023/09/24 10:04:11;;;;;;;0.53;0.40;;;16.40;99.90;;;;;;5093257;28;20468;-73
2023/09/24 10:06:38;;;;;;;;;;;16.40;99.90;;;;;;5093645;28;20352;-76
2023/09/24 10:09:29;;;;;;;0.30;0.30;;;16.40;99.90;;;;;;5093353;28;20015;-75
2023/09/24 10:11:56;;;;;;;0.40;0.40;;;16.50;99.90;;;;;;5094409;28;20475;-73
2023/09/24 10:14:37;;;;;;;0.50;0.50;;;16.50;99.90;;;;;;5096920;28;20032;-76
2023/09/24 10:17:32;;;;;;;0.40;0.40;;;16.50;99.90;;;;;;5096757;28;20036;-75
2023/09/24 10:20:01;;;;;;;0.30;0.30;;;16.60;99.90;;;;;;5079317;28;20044;-74
2023/09/24 10:22:34;;;;;;;0.68;0.68;;;16.60;99.90;;;;;;5096710;28;20464;-73
2023/09/24 10:25:22;;;;;;;0.40;0.40;;;16.70;99.90;;;;;;5097046;28;20036;-73
2023/09/24 10:28:07;;;;;;;0.40;0.40;;;16.70;99.90;;;;;;5096839;28;20446;-75
2023/09/24 10:31:02;;;;;;;0.30;0.30;;;16.80;99.90;;;;;;5097052;28;20036;-74
2023/09/24 10:34:03;;;;;;;0.52;0.52;;;16.80;99.90;;;;;;5095678;28;20079;-75
2023/09/24 10:36:37;;;;;;;0.40;0.40;;;16.90;99.90;;;;;;5014203;28;20088;-75
2023/09/24 10:39:13;;;;;;;0.30;0.30;;;17.00;99.90;;;;;;5084375;28;20059;-74
2023/09/24 10:42:09;;;;;;;0.50;0.50;;;17.00;99.90;;;;;;5096392;28;20048;-75
2023/09/24 10:44:35;;;;;;;0.40;0.40;;;17.10;99.90;;;;;;5096836;28;20040;-73
2023/09/24 10:47:34;;;;;;;0.30;0.30;;;17.20;99.90;;;;;;5096608;28;20039;-75
2023/09/24 10:50:06;;;;;;;;;;;17.30;99.90;;;;;;5096645;28;20092;-76
2023/09/24 10:52:54;;;;;;;0.40;0.40;;;17.40;99.90;;;;;;5095892;28;19920;-75
2023/09/24 10:55:30;;;;;;;0.30;0.30;;;17.50;99.90;;;;;;5096117;28;20036;-74
2023/09/24 10:58:00;;;;;;;0.95;0.70;;;17.60;99.90;;;;;;5096068;28;20483;-74
2023/09/24 11:00:27;;;;;;;1.17;0.40;;;17.60;99.90;;;;;;5096283;28;20039;-74
2023/09/24 11:03:06;;;;;;;0.30;0.30;;;17.70;99.90;;;;;;5096155;28;20044;-74
2023/09/24 11:05:41;;;;;;;0.32;0.32;;;17.80;99.90;;;;;;5096052;28;20044;-75
2023/09/24 11:08:07;;;;;;;0.40;0.40;;;17.80;99.90;;;;;;5095557;28;20044;-75
2023/09/24 11:10:33;;;;;;;0.50;0.50;;;17.90;99.90;;;;;;5095795;28;20059;-73
2023/09/24 11:13:01;;;;;;;1.33;0.50;;;17.90;99.90;;;;;;5095987;28;20452;-76
2023/09/24 11:15:31;;;;;;;0.30;0.30;;;18.00;99.90;;;;;;5095885;28;20422;-75
2023/09/24 11:17:58;;;;;;;1.05;0.88;;;18.10;99.90;;;;;;5095646;28;20028;-73
2023/09/24 11:20:25;;;;;;;2.85;0.95;;;18.10;99.90;;;;;;5095577;28;20047;-75
2023/09/24 11:23:09;;;;;;;;;;;18.20;99.90;;;;;;5095969;28;20055;-76
2023/09/24 11:25:35;;;;;;;0.30;0.30;;;18.20;99.90;;;;;;5095627;28;19916;-74
2023/09/24 11:28:02;;;;;;;0.38;0.38;;;18.30;99.90;;;;;;5095576;28;20112;-74
2023/09/24 11:30:45;;;;;;;0.35;0.30;;;18.30;99.90;;;;;;5095330;28;20123;-74
2023/09/24 11:33:22;;;;;;;0.30;0.30;;;18.40;99.90;;;;;;5095609;28;20132;-75
2023/09/24 11:35:52;;;;;;;0.30;0.30;;;18.40;99.90;;;;;;5095656;28;20375;-73
2023/09/24 11:38:31;;;;;;;0.38;0.38;;;18.50;99.90;;;;;;5095326;28;20043;-75
2023/09/24 11:41:07;;;;;;;0.30;0.30;;;18.50;99.90;;;;;;5095235;28;20122;-73
2023/09/24 11:43:35;;;;;;;0.60;0.60;;;18.60;99.90;;;;;;5095197;28;20043;-74
2023/09/24 11:46:00;;;;;;;0.43;0.43;;;18.70;99.90;;;;;;5095160;28;20042;-74
2023/09/24 11:48:28;;;;;;;0.30;0.30;;;18.70;99.90;;;;;;5095120;28;20119;-75
2023/09/24 11:51:00;;;;;;;0.55;0.55;;;18.70;99.90;;;;;;5095137;28;20127;-76
2023/09/24 11:53:26;;;;;;;0.30;0.30;;;18.80;99.90;;;;;;5094975;28;20047;-73
2023/09/24 11:55:54;;;;;;;0.30;0.30;;;18.80;99.90;;;;;;5094830;28;20044;-76
2023/09/24 11:58:24;;;;;;;0.30;0.30;;;18.80;99.90;;;;;;5094862;28;20131;-74
2023/09/24 12:00:50;;;;;;;0.30;0.30;;;18.80;99.90;;;;;;5094793;28;20032;-73
2023/09/24 12:03:15;;;;;;;0.40;0.40;;;18.90;99.90;;;;;;5094719;28;20062;-74
2023/09/24 12:05:41;;;;;;;0.30;0.30;;;18.90;99.90;;;;;;5094754;28;20085;-76
2023/09/24 12:08:08;;;;;;;0.30;0.30;;;19.00;99.90;;;;;;5094404;28;20047;-76
2023/09/24 12:10:38;;;;;;;0.30;0.30;;;19.10;99.90;;;;;;5094705;28;20047;-74
2023/09/24 12:13:04;;;;;;;0.30;0.30;;;19.20;99.90;;;;;;5094803;28;20454;-74
2023/09/24 12:15:31;;;;;;;0.25;0.25;;;19.20;99.90;;;;;;5094875;28;20043;-73
2023/09/24 12:17:59;;;;;;;0.20;0.20;;;19.20;99.90;;;;;;5094350;28;20064;-74
2023/09/24 12:20:28;;;;;;;0.30;0.30;;;19.20;99.90;;;;;;5094245;28;20069;-74
2023/09/24 12:22:54;;;;;;;0.30;0.30;;;19.30;99.90;;;;;;5093880;28;20494;-73
2023/09/24 12:25:20;;;;;;;0.22;0.22;;;19.30;99.90;;;;;;5094971;28;20035;-75
2023/09/24 12:27:46;;;;;;;0.30;0.30;;;19.40;99.90;;;;;;5094359;28;20036;-72
2023/09/24 12:30:12;;;;;;;0.30;0.30;;;19.40;99.90;;;;;;5094376;28;20086;-75
2023/09/24 12:32:41;;;;;;;0.32;0.32;;;19.40;99.90;;;;;;5094315;28;20173;-72
2023/09/24 12:35:09;;;;;;;0.20;0.20;;;19.40;99.90;;;;;;5093625;28;20036;-75
2023/09/24 12:37:35;;;;;;;0.60;0.60;;;19.50;99.90;;;;;;5094221;28;20046;-74
2023/09/24 12:40:06;;;;;;;0.50;0.50;;;19.50;99.90;;;;;;5094196;28;20035;-75
2023/09/24 12:42:33;;;;;;;0.32;0.32;;;19.50;99.90;;;;;;5094160;28;20044;-72
2023/09/24 12:45:00;;;;;;;0.40;0.40;;;19.40;99.90;;;;;;5094108;28;20036;-74
2023/09/24 12:47:28;;;;;;;;;;;19.40;99.90;;;;;;5094534;28;20039;-74
2023/09/24 12:49:57;;;;;;;0.30;0.30;;;19.40;99.90;;;;;;5093902;28;19938;-74
2023/09/24 12:52:38;;;;;;;0.30;0.30;;;19.40;99.90;;;;;;5094324;28;20352;-72
2023/09/24 12:55:07;;;;;;;0.38;0.38;;;19.30;99.90;;;;;;5094227;28;20059;-73